Time;durP1;ratioP1;P1;durP2;ratioP2;P2;SDS_P1;SDS_P2;PMS_P1;PMS_P2;Temp;Humidity;BMP_temperature;BMP_pressure;BME280_temperature;BME280_humidity;BME280_pressure;Samples;Min_cycle;Max_cycle;Signal;HPM_P1;HPM_P2
2022/07/19 00:00:36;;;;;;;;;;;;;;;;;;8390502;28;27459;-74
2022/07/19 00:04:36;;;;;;;;;;;;;;;;;;8392042;28;27647;-74
2022/07/19 00:08:37;;;;;;;;;;;;;;;;;;8389007;28;28096;-74
2022/07/19 00:12:37;;;;;;;;;;;;;;;;;;8387690;28;28377;-74
2022/07/19 00:16:37;;;;;;;;;;;;;;;;;;8394607;28;27474;-74
2022/07/19 00:20:37;;;;;;;;;;;;;;;;;;8389172;28;27193;-74
2022/07/19 00:24:37;;;;;;;;;;;;;;;;;;8393873;28;27412;-74
2022/07/19 00:28:37;;;;;;;;;;;;;;;;;;8391591;28;27380;-74
2022/07/19 00:32:40;;;;;;;;;;;;;;;;;;8388416;28;27128;-74
2022/07/19 00:36:40;;;;;;;;;;;;;;;;;;8392140;28;28339;-74
2022/07/19 00:40:43;;;;;;;;;;;;;;;;;;8382548;28;27436;-74
2022/07/19 00:44:43;;;;;;;;;;;;;;;;;;8390653;28;28391;-74
2022/07/19 00:48:43;;;;;;;;;;;;;;;;;;8407282;28;28608;-74
2022/07/19 00:52:43;;;;;;;;;;;;;;;;;;8387693;28;28408;-74
2022/07/19 00:56:43;;;;;;;;;;;;;;;;;;8389714;28;28186;-74
2022/07/19 01:00:43;;;;;;;;;;;;;;;;;;8386924;28;28548;-73
2022/07/19 01:04:44;;;;;;;;;;;;;;;;;;8388070;28;29235;-74
2022/07/19 01:08:44;;;;;;;;;;;;;;;;;;8385085;28;27953;-74
2022/07/19 01:12:44;;;;;;;;;;;;;;;;;;8384758;28;27277;-73
2022/07/19 01:16:44;;;;;;;;;;;;;;;;;;8387097;28;27534;-74
2022/07/19 01:20:44;;;;;;;;;;;;;;;;;;8386677;28;27444;-73
2022/07/19 01:24:45;;;;;;;;;;;;;;;;;;8389183;28;27211;-74
2022/07/19 01:28:45;;;;;;;;;;;;;;;;;;8390402;28;27514;-75
2022/07/19 01:32:45;;;;;;;;;;;;;;;;;;8386709;28;27308;-74
2022/07/19 01:36:45;;;;;;;;;;;;;;;;;;8376380;28;27251;-74
2022/07/19 01:40:45;;;;;;;;;;;;;;;;;;8396845;27;28985;-74
2022/07/19 01:44:45;;;;;;;;;;;;;;;;;;8384597;28;27151;-74
2022/07/19 01:48:45;;;;;;;;;;;;;;;;;;8387403;28;27115;-74
2022/07/19 01:52:46;;;;;;;;;;;;;;;;;;8384992;28;27540;-74
2022/07/19 01:56:46;;;;;;;;;;;;;;;;;;8383616;28;27209;-74
2022/07/19 02:00:46;;;;;;;;;;;;;;;;;;8389502;28;27474;-73
2022/07/19 02:04:46;;;;;;;;;;;;;;;;;;8387764;28;27397;-74
2022/07/19 02:08:46;;;;;;;;;;;;;;;;;;8386333;28;27255;-74
2022/07/19 02:12:46;;;;;;;;;;;;;;;;;;8383286;28;27284;-74
2022/07/19 02:16:46;;;;;;;;;;;;;;;;;;8388084;28;27318;-74
2022/07/19 02:20:47;;;;;;;;;;;;;;;;;;8389929;28;27531;-73
2022/07/19 02:24:47;;;;;;;;;;;;;;;;;;8389193;28;27530;-74
2022/07/19 02:28:47;;;;;;;;;;;;;;;;;;8382072;28;28613;-74
2022/07/19 02:32:47;;;;;;;;;;;;;;;;;;8386389;28;27489;-74
2022/07/19 02:36:47;;;;;;;;;;;;;;;;;;8387051;28;28296;-74
2022/07/19 02:40:47;;;;;;;;;;;;;;;;;;8384672;28;28716;-73
2022/07/19 02:44:47;;;;;;;;;;;;;;;;;;8384282;28;28501;-73
2022/07/19 02:48:48;;;;;;;;;;;;;;;;;;8383074;28;27437;-73
2022/07/19 02:52:48;;;;;;;;;;;;;;;;;;8384325;28;27144;-73
2022/07/19 02:56:49;;;;;;;;;;;;;;;;;;8391209;28;27370;-73
2022/07/19 03:00:49;;;;;;;;;;;;;;;;;;8390615;28;28369;-73
2022/07/19 03:04:49;;;;;;;;;;;;;;;;;;8393951;28;27653;-73
2022/07/19 03:08:49;;;;;;;;;;;;;;;;;;8386984;28;27487;-73
2022/07/19 03:12:49;;;;;;;;;;;;;;;;;;8385368;28;28514;-73
2022/07/19 03:16:49;;;;;;;;;;;;;;;;;;8385655;28;27409;-73
2022/07/19 03:20:49;;;;;;;;;;;;;;;;;;8388123;28;27443;-74
2022/07/19 03:24:49;;;;;;;;;;;;;;;;;;8386106;28;27417;-73
2022/07/19 03:28:50;;;;;;;;;;;;;;;;;;8389566;28;27295;-73
2022/07/19 03:32:50;;;;;;;;;;;;;;;;;;8388111;28;28493;-73
2022/07/19 03:36:50;;;;;;;;;;;;;;;;;;8384107;28;27190;-74
2022/07/19 03:40:50;;;;;;;;;;;;;;;;;;8386215;28;27712;-73
2022/07/19 03:44:50;;;;;;;;;;;;;;;;;;8385795;28;29357;-73
2022/07/19 03:48:50;;;;;;;;;;;;;;;;;;8391338;28;27319;-73
2022/07/19 03:52:50;;;;;;;;;;;;;;;;;;8402703;27;28439;-73
2022/07/19 03:56:51;;;;;;;;;;;;;;;;;;8390022;28;27254;-73
2022/07/19 04:00:51;;;;;;;;;;;;;;;;;;8384797;28;27396;-73
2022/07/19 04:04:51;;;;;;;;;;;;;;;;;;8393665;28;27517;-73
2022/07/19 04:08:51;;;;;;;;;;;;;;;;;;8371867;28;28323;-73
2022/07/19 04:12:53;;;;;;;;;;;;;;;;;;8379455;28;27546;-73
2022/07/19 04:16:54;;;;;;;;;;;;;;;;;;8382532;28;27472;-74
2022/07/19 04:20:54;;;;;;;;;;;;;;;;;;8378678;28;28222;-74
2022/07/19 04:24:54;;;;;;;;;;;;;;;;;;8379185;28;27982;-73
2022/07/19 04:28:54;;;;;;;;;;;;;;;;;;8379501;28;28129;-74
2022/07/19 04:32:54;;;;;;;;;;;;;;;;;;8377769;28;27330;-73
2022/07/19 04:36:54;;;;;;;;;;;;;;;;;;8376466;28;28596;-73
2022/07/19 04:40:57;;;;;;;;;;;;;;;;;;8378051;28;27143;-73
2022/07/19 04:44:57;;;;;;;;;;;;;;;;;;8393117;27;28623;-73
2022/07/19 04:48:57;;;;;;;;;;;;;;;;;;8376997;28;27433;-74
2022/07/19 04:52:57;;;;;;;;;;;;;;;;;;8377150;28;27427;-74
2022/07/19 04:56:57;;;;;;;;;;;;;;;;;;8377670;28;28183;-73
2022/07/19 05:00:57;;;;;;;;;;;;;;;;;;8380774;28;27477;-74
2022/07/19 05:04:57;;;;;;;;;;;;;;;;;;8377608;28;27374;-74
2022/07/19 05:08:58;;;;;;;;;;;;;;;;;;8382407;28;28107;-74
2022/07/19 05:12:58;;;;;;;;;;;;;;;;;;8377285;28;29538;-74
2022/07/19 05:16:58;;;;;;;;;;;;;;;;;;8379187;28;28292;-73
2022/07/19 05:20:58;;;;;;;;;;;;;;;;;;8375176;28;27395;-74
2022/07/19 05:24:58;;;;;;;;;;;;;;;;;;8378635;28;27310;-73
2022/07/19 05:28:58;;;;;;;;;;;;;;;;;;8379107;28;27342;-74
2022/07/19 05:32:58;;;;;;;;;;;;;;;;;;8377532;28;27184;-74
2022/07/19 05:36:59;;;;;;;;;;;;;;;;;;8378123;28;28684;-74
2022/07/19 05:40:59;;;;;;;;;;;;;;;;;;8378456;28;28590;-73
2022/07/19 05:44:59;;;;;;;;;;;;;;;;;;8377092;28;28166;-73
2022/07/19 05:48:59;;;;;;;;;;;;;;;;;;8378318;27;28119;-74
2022/07/19 05:52:59;;;;;;;;;;;;;;;;;;8376030;28;27958;-73
2022/07/19 05:56:59;;;;;;;;;;;;;;;;;;8377823;27;27985;-73
2022/07/19 06:01:18;;;;;;;;;;;;;;;;;;8377785;28;28261;-74
2022/07/19 06:05:18;;;;;;;;;;;;;;;;;;8373783;28;27373;-74
2022/07/19 06:09:19;;;;;;;;;;;;;;;;;;8376059;28;28199;-74
2022/07/19 06:13:19;;;;;;;;;;;;;;;;;;8378208;28;27321;-74
2022/07/19 06:17:19;;;;;;;;;;;;;;;;;;8377927;28;27230;-74
2022/07/19 06:21:19;;;;;;;;;;;;;;;;;;8373758;28;28157;-74
2022/07/19 06:25:19;;;;;;;;;;;;;;;;;;8375113;28;27459;-74
2022/07/19 06:29:20;;;;;;;;;;;;;;;;;;8378239;28;27299;-74
2022/07/19 06:33:20;;;;;;;;;;;;;;;;;;8378046;28;27131;-74
2022/07/19 06:37:20;;;;;;;;;;;;;;;;;;8383197;28;27594;-74
2022/07/19 06:41:22;;;;;;;;;;;;;;;;;;8379314;28;46348;-74
2022/07/19 06:45:22;;;;;;;;;;;;;;;;;;8383397;28;28405;-73
2022/07/19 06:49:22;;;;;;;;;;;;;;;;;;8379676;28;27371;-74
2022/07/19 06:53:22;;;;;;;;;;;;;;;;;;8380903;28;27353;-74
2022/07/19 06:57:23;;;;;;;;;;;;;;;;;;8382491;28;27268;-74
2022/07/19 07:01:23;;;;;;;;;;;;;;;;;;8381375;28;27489;-74
2022/07/19 07:05:23;;;;;;;;;;;;;;;;;;8385727;28;27302;-74
2022/07/19 07:09:23;;;;;;;;;;;;;;;;;;8378266;28;27324;-74
2022/07/19 07:13:23;;;;;;;;;;;;;;;;;;8381538;28;27735;-74
2022/07/19 07:17:23;;;;;;;;;;;;;;;;;;8381273;28;27390;-74
2022/07/19 07:21:23;;;;;;;;;;;;;;;;;;8379941;28;27489;-74
2022/07/19 07:25:24;;;;;;;;;;;;;;;;;;8382019;28;27402;-74
2022/07/19 07:29:24;;;;;;;;;;;;;;;;;;8381652;28;27389;-74
2022/07/19 07:33:24;;;;;;;;;;;;;;;;;;8382668;28;27376;-74
2022/07/19 07:37:26;;;;;;;;;;;;;;;;;;8383196;28;28919;-74
2022/07/19 07:41:26;;;;;;;;;;;;;;;;;;8381369;28;28418;-74
2022/07/19 07:45:26;;;;;;;;;;;;;;;;;;8380771;28;27354;-74
2022/07/19 07:49:26;;;;;;;;;;;;;;;;;;8380159;28;27184;-73
2022/07/19 07:53:26;;;;;;;;;;;;;;;;;;8395841;27;28569;-74
2022/07/19 07:57:26;;;;;;;;;;;;;;;;;;8382587;28;27287;-74
2022/07/19 08:01:27;;;;;;;;;;;;;;;;;;8380521;28;27363;-74
2022/07/19 08:05:27;;;;;;;;;;;;;;;;;;8381868;28;27351;-74
2022/07/19 08:09:27;;;;;;;;;;;;;;;;;;8377362;28;27434;-74
2022/07/19 08:13:27;;;;;;;;;;;;;;;;;;8380221;28;27233;-74
2022/07/19 08:17:27;;;;;;;;;;;;;;;;;;8398238;27;28504;-74
2022/07/19 08:21:27;;;;;;;;;;;;;;;;;;8376293;28;28369;-74
2022/07/19 08:25:28;;;;;;;;;;;;;;;;;;8381642;28;27292;-74
2022/07/19 08:29:28;;;;;;;;;;;;;;;;;;8392187;28;28266;-74
2022/07/19 08:33:28;;;;;;;;;;;;;;;;;;8379132;28;27288;-74
2022/07/19 08:37:28;;;;;;;;;;;;;;;;;;8378653;28;27280;-74
2022/07/19 08:41:28;;;;;;;;;;;;;;;;;;8377448;28;28192;-73
2022/07/19 08:45:29;;;;;;;;;;;;;;;;;;8381090;28;27488;-73
2022/07/19 08:49:29;;;;;;;;;;;;;;;;;;8379367;28;27388;-74
2022/07/19 08:53:29;;;;;;;;;;;;;;;;;;8376081;28;27312;-74
2022/07/19 09:01:48;;;;;;;;;;;;;;;;;;8378947;28;27234;-74
2022/07/19 09:05:48;;;;;;;;;;;;;;;;;;8377121;28;27436;-74
2022/07/19 09:09:48;;;;;;;;;;;;;;;;;;8379618;28;27332;-74
2022/07/19 09:13:48;;;;;;;;;;;;;;;;;;8378639;28;28495;-74
2022/07/19 09:17:48;;;;;;;;;;;;;;;;;;8377371;28;27310;-74
2022/07/19 09:21:49;;;;;;;;;;;;;;;;;;8376059;28;28192;-74
2022/07/19 09:25:49;;;;;;;;;;;;;;;;;;8379045;28;28183;-74
2022/07/19 09:29:49;;;;;;;;;;;;;;;;;;8378174;28;28359;-74
2022/07/19 09:33:49;;;;;;;;;;;;;;;;;;8378051;28;27832;-73
2022/07/19 09:37:49;;;;;;;;;;;;;;;;;;8378169;28;28179;-74
2022/07/19 09:41:49;;;;;;;;;;;;;;;;;;8378361;28;28242;-74
2022/07/19 09:45:49;;;;;;;;;;;;;;;;;;8376740;28;27543;-74
2022/07/19 09:49:50;;;;;;;;;;;;;;;;;;8377382;28;28944;-73
2022/07/19 09:53:50;;;;;;;;;;;;;;;;;;8374372;28;27500;-74
2022/07/19 09:57:50;;;;;;;;;;;;;;;;;;8382202;28;28219;-74
2022/07/19 10:01:53;;;;;;;;;;;;;;;;;;8379674;28;28669;-74
2022/07/19 10:05:53;;;;;;;;;;;;;;;;;;8383892;28;27451;-71
2022/07/19 10:09:53;;;;;;;;;;;;;;;;;;8386822;28;27190;-73
2022/07/19 10:13:53;;;;;;;;;;;;;;;;;;8387739;28;27265;-73
2022/07/19 10:17:54;;;;;;;;;;;;;;;;;;8387252;28;28266;-73
2022/07/19 10:21:54;;;;;;;;;;;;;;;;;;8384848;28;27241;-73
2022/07/19 10:25:54;;;;;;;;;;;;;;;;;;8386740;28;27298;-73
2022/07/19 10:29:54;;;;;;;;;;;;;;;;;;8383693;28;27329;-73
2022/07/19 10:33:54;;;;;;;;;;;;;;;;;;8387838;28;27329;-73
2022/07/19 10:37:54;;;;;;;;;;;;;;;;;;8386601;28;27659;-73
2022/07/19 10:41:54;;;;;;;;;;;;;;;;;;8387453;28;27693;-73
2022/07/19 10:45:55;;;;;;;;;;;;;;;;;;8388355;28;27785;-73
2022/07/19 10:49:55;;;;;;;;;;;;;;;;;;8385860;28;28130;-73
2022/07/19 10:53:55;;;;;;;;;;;;;;;;;;8383832;28;27998;-73
2022/07/19 10:57:55;;;;;;;;;;;;;;;;;;8384635;28;27385;-72
2022/07/19 11:01:55;;;;;;;;;;;;;;;;;;8386354;28;27762;-74
2022/07/19 11:05:55;;;;;;;;;;;;;;;;;;8390710;28;27371;-73
2022/07/19 11:09:56;;;;;;;;;;;;;;;;;;8386734;28;27226;-73
2022/07/19 11:13:57;;;;;;;;;;;;;;;;;;8383770;28;27816;-73
2022/07/19 11:17:57;;;;;;;;;;;;;;;;;;8383516;28;28247;-73
2022/07/19 11:21:58;;;;;;;;;;;;;;;;;;8382807;28;27045;-73
2022/07/19 11:25:58;;;;;;;;;;;;;;;;;;8380471;28;27379;-72
2022/07/19 11:29:58;;;;;;;;;;;;;;;;;;8387111;28;27237;-74
2022/07/19 11:33:58;;;;;;;;;;;;;;;;;;8385137;28;27540;-74
2022/07/19 11:37:58;;;;;;;;;;;;;;;;;;8385040;28;27144;-72
2022/07/19 11:41:58;;;;;;;;;;;;;;;;;;8383547;28;28244;-71
2022/07/19 11:45:59;;;;;;;;;;;;;;;;;;8382034;28;27992;-74
2022/07/19 11:49:59;;;;;;;;;;;;;;;;;;8385692;28;27381;-74
2022/07/19 11:53:59;;;;;;;;;;;;;;;;;;8384872;28;27437;-74
2022/07/19 11:58:01;;;;;;;;;;;;;;;;;;8383465;28;27320;-73
2022/07/19 12:02:02;;;;;;;;;;;;;;;;;;8386318;28;28336;-73
2022/07/19 12:06:02;;;;;;;;;;;;;;;;;;8383269;28;28476;-74
2022/07/19 12:10:02;;;;;;;;;;;;;;;;;;8384618;28;27347;-71
2022/07/19 12:14:02;;;;;;;;;;;;;;;;;;8383000;28;27275;-72
2022/07/19 12:18:02;;;;;;;;;;;;;;;;;;8386976;28;27393;-73
2022/07/19 12:22:02;;;;;;;;;;;;;;;;;;8383553;28;27113;-74
2022/07/19 12:26:03;;;;;;;;;;;;;;;;;;8382743;28;28574;-72
2022/07/19 12:30:05;;;;;;;;;;;;;;;;;;8386019;28;27394;-73
2022/07/19 12:34:05;;;;;;;;;;;;;;;;;;8383388;28;27120;-73
2022/07/19 12:38:09;;;;;;;;;;;;;;;;;;8381703;28;27311;-74
2022/07/19 12:42:09;;;;;;;;;;;;;;;;;;8382092;28;27642;-74
2022/07/19 12:46:09;;;;;;;;;;;;;;;;;;8382745;28;28366;-74
2022/07/19 12:50:10;;;;;;;;;;;;;;;;;;8380016;28;28552;-73
2022/07/19 12:54:10;;;;;;;;;;;;;;;;;;8383332;28;27987;-74
2022/07/19 12:58:10;;;;;;;;;;;;;;;;;;8378070;28;27756;-73
2022/07/19 13:02:10;;;;;;;;;;;;;;;;;;8381410;28;27302;-74
2022/07/19 13:06:10;;;;;;;;;;;;;;;;;;8381380;28;27103;-73
2022/07/19 13:10:10;;;;;;;;;;;;;;;;;;8381515;28;27179;-74
2022/07/19 13:14:12;;;;;;;;;;;;;;;;;;8379904;28;28257;-73
2022/07/19 13:18:12;;;;;;;;;;;;;;;;;;8387430;28;27336;-74
2022/07/19 13:22:13;;;;;;;;;;;;;;;;;;8380572;28;27761;-73
2022/07/19 13:26:13;;;;;;;;;;;;;;;;;;8384147;28;28733;-73
2022/07/19 13:30:13;;;;;;;;;;;;;;;;;;8386883;28;28343;-74
2022/07/19 13:34:15;;;;;;;;;;;;;;;;;;8383597;28;27448;-74
2022/07/19 13:38:15;;;;;;;;;;;;;;;;;;8387558;28;28387;-74
2022/07/19 13:42:16;;;;;;;;;;;;;;;;;;8387810;28;28460;-74
2022/07/19 13:46:16;;;;;;;;;;;;;;;;;;8383954;28;27606;-73
2022/07/19 13:50:16;;;;;;;;;;;;;;;;;;8386917;28;29178;-73
2022/07/19 13:54:18;;;;;;;;;;;;;;;;;;8385781;28;27295;-74
2022/07/19 13:58:18;;;;;;;;;;;;;;;;;;8387192;28;28615;-74
2022/07/19 14:02:18;;;;;;;;;;;;;;;;;;8388168;28;27457;-74
2022/07/19 14:06:19;;;;;;;;;;;;;;;;;;8381840;28;28316;-75
2022/07/19 14:10:19;;;;;;;;;;;;;;;;;;8390322;28;28146;-74
2022/07/19 14:14:19;;;;;;;;;;;;;;;;;;8384694;28;27369;-74
2022/07/19 14:18:19;;;;;;;;;;;;;;;;;;8389683;28;27969;-74
2022/07/19 14:22:19;;;;;;;;;;;;;;;;;;8387389;28;27736;-74
2022/07/19 14:26:19;;;;;;;;;;;;;;;;;;8386376;28;27365;-74
2022/07/19 14:30:24;;;;;;;;;;;;;;;;;;8384579;28;28593;-74
2022/07/19 14:34:26;;;;;;;;;;;;;;;;;;8387525;28;27817;-75
2022/07/19 14:38:26;;;;;;;;;;;;;;;;;;8385510;28;27118;-74
2022/07/19 14:42:29;;;;;;;;;;;;;;;;;;8383513;28;27357;-74
2022/07/19 14:46:29;;;;;;;;;;;;;;;;;;8382086;28;27148;-74
2022/07/19 14:50:29;;;;;;;;;;;;;;;;;;8381711;28;27296;-74
2022/07/19 14:54:29;;;;;;;;;;;;;;;;;;8390593;28;28483;-73
2022/07/19 14:58:29;;;;;;;;;;;;;;;;;;8388931;28;28084;-74
2022/07/19 15:02:30;;;;;;;;;;;;;;;;;;8406372;27;28277;-74
2022/07/19 15:06:30;;;;;;;;;;;;;;;;;;8391800;28;27326;-74
2022/07/19 15:10:30;;;;;;;;;;;;;;;;;;8391312;28;28242;-74
2022/07/19 15:14:30;;;;;;;;;;;;;;;;;;8385085;28;27362;-73
2022/07/19 15:18:31;;;;;;;;;;;;;;;;;;8386690;28;29200;-74
2022/07/19 15:22:31;;;;;;;;;;;;;;;;;;8389368;28;27463;-74
2022/07/19 15:26:31;;;;;;;;;;;;;;;;;;8386846;28;27846;-74
2022/07/19 15:30:32;;;;;;;;;;;;;;;;;;8403239;27;29596;-74
2022/07/19 15:34:32;;;;;;;;;;;;;;;;;;8386780;28;27418;-74
2022/07/19 15:38:32;;;;;;;;;;;;;;;;;;8391716;28;27247;-74
2022/07/19 15:42:32;;;;;;;;;;;;;;;;;;8385432;28;27337;-74
2022/07/19 15:46:32;;;;;;;;;;;;;;;;;;8388812;28;29383;-74
2022/07/19 15:50:37;;;;;;;;;;;;;;;;;;8385691;28;27334;-74
2022/07/19 15:54:37;;;;;;;;;;;;;;;;;;8389416;28;27647;-74
2022/07/19 15:58:39;;;;;;;;;;;;;;;;;;8389248;28;27416;-74
2022/07/19 16:02:39;;;;;;;;;;;;;;;;;;8389792;28;28223;-74
2022/07/19 16:06:39;;;;;;;;;;;;;;;;;;8384492;28;29046;-74
2022/07/19 16:10:40;;;;;;;;;;;;;;;;;;8379877;28;27655;-74
2022/07/19 16:14:41;;;;;;;;;;;;;;;;;;8384242;28;27621;-74
2022/07/19 16:18:42;;;;;;;;;;;;;;;;;;8381307;28;28111;-74
2022/07/19 16:22:42;;;;;;;;;;;;;;;;;;8384790;28;27430;-74
2022/07/19 16:26:42;;;;;;;;;;;;;;;;;;8383298;28;28545;-74
2022/07/19 16:30:44;;;;;;;;;;;;;;;;;;8392440;28;27335;-74
2022/07/19 16:34:44;;;;;;;;;;;;;;;;;;8385260;28;27662;-74
2022/07/19 16:38:44;;;;;;;;;;;;;;;;;;8386827;28;27776;-74
2022/07/19 16:42:45;;;;;;;;;;;;;;;;;;8385206;28;28696;-74
2022/07/19 16:46:45;;;;;;;;;;;;;;;;;;8385156;28;28612;-75
2022/07/19 16:50:45;;;;;;;;;;;;;;;;;;8384106;28;29515;-74
2022/07/19 16:54:45;;;;;;;;;;;;;;;;;;8390431;28;27673;-74
2022/07/19 16:58:45;;;;;;;;;;;;;;;;;;8383434;28;28390;-74
2022/07/19 17:02:45;;;;;;;;;;;;;;;;;;8385446;28;27632;-74
2022/07/19 17:06:45;;;;;;;;;;;;;;;;;;8385266;28;28189;-74
2022/07/19 17:10:46;;;;;;;;;;;;;;;;;;8381918;28;27677;-74
2022/07/19 17:14:46;;;;;;;;;;;;;;;;;;8388433;28;28621;-74
2022/07/19 17:18:46;;;;;;;;;;;;;;;;;;8382135;28;28770;-74
2022/07/19 17:22:46;;;;;;;;;;;;;;;;;;8386312;28;29490;-74
2022/07/19 17:26:46;;;;;;;;;;;;;;;;;;8380082;28;28257;-75
2022/07/19 17:30:47;;;;;;;;;;;;;;;;;;8382260;28;28434;-74
2022/07/19 17:34:47;;;;;;;;;;;;;;;;;;8384268;28;28740;-74
2022/07/19 17:38:47;;;;;;;;;;;;;;;;;;8384791;28;28643;-74
2022/07/19 17:42:47;;;;;;;;;;;;;;;;;;8387241;28;28621;-74
2022/07/19 17:46:47;;;;;;;;;;;;;;;;;;8380670;28;28478;-74
2022/07/19 17:50:47;;;;;;;;;;;;;;;;;;8389121;28;27912;-74
2022/07/19 17:54:47;;;;;;;;;;;;;;;;;;8386800;28;27907;-74
2022/07/19 17:58:48;;;;;;;;;;;;;;;;;;8382117;28;28162;-74
2022/07/19 18:02:48;;;;;;;;;;;;;;;;;;8387192;28;27894;-74
2022/07/19 18:06:48;;;;;;;;;;;;;;;;;;8384056;28;27564;-74
2022/07/19 18:10:50;;;;;;;;;;;;;;;;;;8377904;28;28936;-75
2022/07/19 18:14:52;;;;;;;;;;;;;;;;;;8377420;28;28258;-74
2022/07/19 18:18:53;;;;;;;;;;;;;;;;;;8381745;28;27636;-74
2022/07/19 18:22:53;;;;;;;;;;;;;;;;;;8381984;28;27641;-74
2022/07/19 18:26:54;;;;;;;;;;;;;;;;;;8378846;28;28412;-74
2022/07/19 18:30:54;;;;;;;;;;;;;;;;;;8391834;28;27548;-74
2022/07/19 18:34:54;;;;;;;;;;;;;;;;;;8393780;28;27815;-74
2022/07/19 18:38:54;;;;;;;;;;;;;;;;;;8387476;28;27327;-75
2022/07/19 18:42:54;;;;;;;;;;;;;;;;;;8387302;28;27462;-75
2022/07/19 18:46:55;;;;;;;;;;;;;;;;;;8393070;28;27534;-74
2022/07/19 18:50:55;;;;;;;;;;;;;;;;;;8390924;28;27490;-74
2022/07/19 18:54:55;;;;;;;;;;;;;;;;;;8393711;28;27539;-74
2022/07/19 18:58:55;;;;;;;;;;;;;;;;;;8387155;28;28776;-74
2022/07/19 19:02:58;;;;;;;;;;;;;;;;;;8389504;28;28274;-74
2022/07/19 19:06:58;;;;;;;;;;;;;;;;;;8383452;28;28027;-74
2022/07/19 19:10:58;;;;;;;;;;;;;;;;;;8390169;28;28333;-74
2022/07/19 19:14:58;;;;;;;;;;;;;;;;;;8388858;28;27330;-74
2022/07/19 19:18:58;;;;;;;;;;;;;;;;;;8388875;28;28190;-74
2022/07/19 19:23:01;;;;;;;;;;;;;;;;;;8387487;28;28382;-74
2022/07/19 19:27:01;;;;;;;;;;;;;;;;;;8386484;28;27901;-74
2022/07/19 19:31:01;;;;;;;;;;;;;;;;;;8381913;28;27303;-74
2022/07/19 19:35:01;;;;;;;;;;;;;;;;;;8387552;28;28621;-74
2022/07/19 19:39:02;;;;;;;;;;;;;;;;;;8383414;28;27274;-75
2022/07/19 19:43:02;;;;;;;;;;;;;;;;;;8381620;28;27123;-74
2022/07/19 19:47:02;;;;;;;;;;;;;;;;;;8384051;28;27179;-74
2022/07/19 19:51:02;;;;;;;;;;;;;;;;;;8379233;28;27164;-73
2022/07/19 19:55:02;;;;;;;;;;;;;;;;;;8381619;28;28041;-73
2022/07/19 19:59:02;;;;;;;;;;;;;;;;;;8377875;28;28230;-74
2022/07/19 20:03:02;;;;;;;;;;;;;;;;;;8387393;27;27214;-74
2022/07/19 20:07:03;;;;;;;;;;;;;;;;;;8388545;28;27343;-74
2022/07/19 20:14:37;;;;;;;;;;;;;;;;;;8476657;27;28380;-73
2022/07/19 20:18:37;;;;;;;;;;;;;;;;;;8447468;27;27385;-73
2022/07/19 20:22:37;;;;;;;;;;;;;;;;;;8447806;27;27639;-74
2022/07/19 20:26:49;;;;;;;;;;;;;;;;;;8446041;27;27384;-73
2022/07/19 20:30:49;;;;;;;;;;;;;;;;;;8452146;27;28441;-73
2022/07/19 20:34:49;;;;;;;;;;;;;;;;;;8448519;27;28004;-73
2022/07/19 20:38:53;;;;;;;;;;;;;;;;;;8448048;27;27611;-73
2022/07/19 20:42:53;;;;;;;;;;;;;;;;;;8447056;27;28488;-73
2022/07/19 20:46:56;;;;;;;;;;;;;;;;;;8450703;27;27161;-73
2022/07/19 20:51:06;;;;;;;;;;;;;;;;;;8450393;27;28265;-73
2022/07/19 20:55:10;;;;;;;;;;;;;;;;;;8447988;27;27431;-73
2022/07/19 20:59:15;;;;;;;;;;;;;;;;;;8451091;27;27134;-73
2022/07/19 21:03:19;;;;;;;;;;;;;;;;;;8453651;27;27341;-73
2022/07/19 21:07:23;;;;;;;;;;;;;;;;;;8453147;27;27739;-73
2022/07/19 21:11:23;;;;;;;;;;;;;;;;;;8446192;27;27156;-73
2022/07/19 21:15:23;;;;;;;;;;;;;;;;;;8447776;27;27774;-73
2022/07/19 21:19:23;;;;;;;;;;;;;;;;;;8465103;27;29309;-73
2022/07/19 21:23:27;;;;;;;;;;;;;;;;;;8439380;27;28574;-73
2022/07/19 21:27:36;;;;;;;;;;;;;;;;;;8429508;27;27822;-73
2022/07/19 21:31:36;;;;;;;;;;;;;;;;;;8427227;27;28692;-73
2022/07/19 21:35:40;;;;;;;;;;;;;;;;;;8428803;27;28051;-74
2022/07/19 21:39:42;;;;;;;;;;;;;;;;;;8428111;27;29541;-73
2022/07/19 21:43:46;;;;;;;;;;;;;;;;;;8427858;27;27952;-73
2022/07/19 21:47:46;;;;;;;;;;;;;;;;;;8424264;27;28133;-73
2022/07/19 21:51:49;;;;;;;;;;;;;;;;;;8440939;27;29339;-73
2022/07/19 21:56:10;;;;;;;;;;;;;;;;;;8428135;27;28549;-73
2022/07/19 22:00:12;;;;;;;;;;;;;;;;;;8424147;27;27203;-74
2022/07/19 22:04:12;;;;;;;;;;;;;;;;;;8430838;27;27566;-73
2022/07/19 22:08:13;;;;;;;;;;;;;;;;;;8426451;27;27215;-73
2022/07/19 22:12:18;;;;;;;;;;;;;;;;;;8421836;27;27203;-73
2022/07/19 22:16:19;;;;;;;;;;;;;;;;;;8426556;27;27262;-73
2022/07/19 22:20:20;;;;;;;;;;;;;;;;;;8439760;27;28620;-73
2022/07/19 22:24:23;;;;;;;;;;;;;;;;;;8427902;27;27131;-73
2022/07/19 22:28:23;;;;;;;;;;;;;;;;;;8423948;27;29116;-73
2022/07/19 22:32:38;;;;;;;;;;;;;;;;;;8426385;27;28832;-73
2022/07/19 22:36:38;;;;;;;;;;;;;;;;;;8421363;27;28600;-73
2022/07/19 22:40:38;;;;;;;;;;;;;;;;;;8422387;27;27424;-73
2022/07/19 22:44:39;;;;;;;;;;;;;;;;;;8420514;27;27627;-73
2022/07/19 22:48:41;;;;;;;;;;;;;;;;;;8422376;27;27535;-73
2022/07/19 22:52:47;;;;;;;;;;;;;;;;;;8425885;27;27155;-73
2022/07/19 22:56:53;;;;;;;;;;;;;;;;;;8427058;27;27498;-73
2022/07/19 23:01:03;;;;;;;;;;;;;;;;;;;;;
2022/07/19 23:05:04;;;;;;;;;;;;;;;;;;8426921;27;55641;-73
2022/07/19 23:09:04;;;;;;;;;;;;;;;;;;8425126;27;27160;-73
2022/07/19 23:13:07;;;;;;;;;;;;;;;;;;8438300;27;29090;-73
2022/07/19 23:17:08;;;;;;;;;;;;;;;;;;8425538;27;27394;-73
2022/07/19 23:21:08;;;;;;;;;;;;;;;;;;8421689;27;27349;-73
2022/07/19 23:25:08;;;;;;;;;;;;;;;;;;8442610;27;28460;-73
2022/07/19 23:29:24;;;;;;;;;;;;;;;;;;8425137;27;27320;-73
2022/07/19 23:33:27;;;;;;;;;;;;;;;;;;8423098;27;27806;-73
2022/07/19 23:37:27;;;;;;;;;;;;;;;;;;8437581;27;28643;-74
2022/07/19 23:41:33;;;;;;;;;;;;;;;;;;8426424;27;28398;-73
2022/07/19 23:45:33;;;;;;;;;;;;;;;;;;8421897;27;28241;-73
2022/07/19 23:49:36;;;;;;;;;;;;;;;;;;8424822;27;28338;-73
2022/07/19 23:53:36;;;;;;;;;;;;;;;;;;8425185;27;28367;-73
2022/07/19 23:57:38;;;;;;;;;;;;;;;;;;8424427;27;28190;-73
